Time;durP1;ratioP1;P1;durP2;ratioP2;P2;SDS_P1;SDS_P2;PMS_P1;PMS_P2;Temp;Humidity;BMP_temperature;BMP_pressure;BME280_temperature;BME280_humidity;BME280_pressure;Samples;Min_cycle;Max_cycle;Signal;HPM_P1;HPM_P2
2022/04/21 00:00:17;;;;;;;5.53;4.28;;;;;;;10.22;53.97;98770.03;5002373;28;20675;-81
2022/04/21 00:02:44;;;;;;;6.03;4.35;;;;;;;10.31;53.85;98776.66;4999686;28;20198;-81
2022/04/21 00:05:12;;;;;;;5.72;5.10;;;;;;;10.35;54.11;98769.19;4997322;28;20184;-81
2022/04/21 00:07:40;;;;;;;7.25;4.20;;;;;;;10.34;54.21;98776.41;5000701;28;20178;-81
2022/04/21 00:10:08;;;;;;;5.30;4.78;;;;;;;10.28;54.53;98779.50;5003223;28;20210;-81
2022/04/21 00:12:35;;;;;;;4.82;4.35;;;;;;;10.29;54.76;98778.59;5011653;28;20195;-81
2022/04/21 00:15:03;;;;;;;5.95;3.83;;;;;;;10.31;54.71;98787.41;5001460;28;20559;-81
2022/04/21 00:17:31;;;;;;;6.95;4.35;;;;;;;10.30;55.05;98774.06;4995934;28;20207;-82
2022/04/21 00:19:59;;;;;;;5.80;3.92;;;;;;;10.19;55.66;98777.47;5002071;28;20301;-81
2022/04/21 00:25:10;;;;;;;6.07;4.00;;;;;;;10.26;55.81;98777.88;4996151;28;20183;-81
2022/04/21 00:27:38;;;;;;;5.15;3.90;;;;;;;10.02;56.98;98778.63;5005616;28;20205;-83
2022/04/21 00:30:07;;;;;;;5.47;4.25;;;;;;;10.09;57.20;98776.38;5007323;28;20644;-81
2022/04/21 00:32:35;;;;;;;6.18;4.53;;;;;;;10.00;57.59;98784.13;5009793;28;20641;-81
2022/04/21 00:35:02;;;;;;;7.05;4.82;;;;;;;9.95;58.15;98774.63;5015458;28;20572;-81
2022/04/21 00:37:29;;;;;;;4.57;3.95;;;;;;;9.85;58.92;98777.09;5006445;28;20191;-81
2022/04/21 00:39:56;;;;;;;6.72;4.45;;;;;;;9.89;59.11;98775.91;4996131;28;20197;-82
2022/04/21 00:42:23;;;;;;;4.80;4.30;;;;;;;9.96;59.01;98768.28;5010316;28;20195;-82
2022/04/21 00:44:50;;;;;;;5.47;4.25;;;;;;;10.10;58.64;98768.19;5015576;28;20225;-81
2022/04/21 00:47:17;;;;;;;5.68;3.80;;;;;;;10.08;58.92;98770.13;5004572;28;20182;-82
2022/04/21 00:49:46;;;;;;;4.32;3.92;;;;;;;10.11;59.18;98775.31;5014971;28;20209;-82
2022/04/21 00:52:14;;;;;;;7.00;4.65;;;;;;;10.17;58.99;98772.16;5010721;28;20191;-82
2022/04/21 00:54:41;;;;;;;5.00;4.40;;;;;;;10.13;59.67;98777.88;5014383;28;20677;-81
2022/04/21 00:57:09;;;;;;;5.05;4.32;;;;;;;10.11;60.13;98763.69;4999386;28;20235;-81
2022/04/21 00:59:36;;;;;;;5.95;5.03;;;;;;;10.13;60.50;98772.50;5003242;28;20529;-80
2022/04/21 01:04:49;;;;;;;5.32;4.75;;;;;;;9.90;62.89;98766.88;5013051;28;20724;-81
2022/04/21 01:07:17;;;;;;;5.30;4.80;;;;;;;9.95;63.15;98763.88;4998951;28;20202;-81
2022/04/21 01:09:44;;;;;;;4.93;4.43;;;;;;;10.02;63.32;98759.81;4994432;28;20561;-81
2022/04/21 01:12:12;;;;;;;6.60;4.50;;;;;;;9.90;64.40;98763.34;4994941;28;20189;-81
2022/04/21 01:14:39;;;;;;;5.90;4.35;;;;;;;9.94;64.55;98754.94;4993948;28;20204;-81
2022/04/21 01:17:06;;;;;;;4.90;4.28;;;;;;;9.81;65.66;98752.25;5006921;28;20308;-81
2022/04/21 01:19:32;;;;;;;8.65;4.90;;;;;;;9.84;66.32;98751.19;5007688;28;20209;-81
2022/04/21 01:22:01;;;;;;;7.13;4.55;;;;;;;9.90;66.42;98749.88;5013759;28;20198;-81
2022/04/21 01:24:27;;;;;;;6.57;5.20;;;;;;;9.79;67.41;98745.25;5013592;28;20202;-81
2022/04/21 01:26:58;;;;;;;7.55;5.00;;;;;;;9.63;68.94;98758.84;5007455;28;20222;-81
2022/04/21 01:29:24;;;;;;;5.38;4.85;;;;;;;9.57;69.44;98735.97;5000655;28;20190;-81
2022/04/21 01:31:51;;;;;;;5.13;4.10;;;;;;;9.54;70.08;98737.97;5013520;28;20196;-81
2022/04/21 01:34:18;;;;;;;6.40;5.22;;;;;;;9.60;69.99;98730.38;5013134;28;20222;-81
2022/04/21 01:42:14;;;;;;;5.55;4.85;;;;;;;9.72;70.31;98741.25;5003859;28;20194;-81
2022/04/21 01:44:41;;;;;;;12.63;5.75;;;;;;;9.77;70.75;98745.38;5012862;28;20626;-81
2022/04/21 01:47:08;;;;;;;5.43;4.93;;;;;;;9.84;70.12;98739.56;5006973;28;20526;-81
2022/04/21 01:49:34;;;;;;;5.82;4.97;;;;;;;9.67;71.23;98741.56;5013588;28;20710;-81
2022/04/21 01:52:01;;;;;;;6.75;5.78;;;;;;;9.74;71.13;98739.31;5012236;28;20273;-81
2022/04/21 01:54:29;;;;;;;5.85;5.13;;;;;;;9.76;71.48;98737.41;5013226;28;20297;-80
2022/04/21 01:56:56;;;;;;;9.35;5.30;;;;;;;9.74;71.95;98739.31;5007204;28;144822;-80
2022/04/21 01:59:22;;;;;;;5.20;4.70;;;;;;;9.57;73.10;98733.28;5004023;28;20194;-81
2022/04/21 02:01:49;;;;;;;6.80;4.80;;;;;;;9.67;72.73;98735.34;5009792;28;20191;-80
2022/04/21 02:04:17;;;;;;;4.90;4.40;;;;;;;9.73;72.70;98749.22;4994233;28;20198;-81
2022/04/21 02:06:43;;;;;;;6.90;5.22;;;;;;;9.54;73.94;98741.56;5003495;28;20656;-81
2022/04/21 02:09:10;;;;;;;9.05;5.30;;;;;;;9.69;73.30;98738.78;5001344;28;20190;-80
2022/04/21 02:11:38;;;;;;;9.52;5.00;;;;;;;9.70;73.25;98729.75;5009815;28;20208;-80
2022/04/21 02:14:05;;;;;;;5.18;4.72;;;;;;;9.59;74.49;98727.81;5014100;28;20688;-81
2022/04/21 02:16:31;;;;;;;7.40;5.00;;;;;;;9.56;75.15;98728.84;5007362;28;20244;-81
2022/04/21 02:18:58;;;;;;;7.95;5.20;;;;;;;9.35;76.61;98736.53;5002050;28;20195;-81
2022/04/21 02:21:25;;;;;;;6.60;5.20;;;;;;;9.43;76.61;98737.84;4998527;28;20245;-81
2022/04/21 02:23:51;;;;;;;10.32;9.32;;;;;;;9.36;77.03;98738.28;4994004;28;20572;-81
2022/04/21 02:26:18;;;;;;;10.18;5.95;;;;;;;9.24;78.60;98730.16;4998284;28;20220;-80
2022/04/21 02:28:46;;;;;;;8.50;5.40;;;;;;;9.16;79.29;98730.69;5007637;28;20211;-81
2022/04/21 02:31:13;;;;;;;7.28;5.68;;;;;;;8.92;81.46;98725.09;4994025;28;20189;-81
2022/04/21 02:33:39;;;;;;;5.70;5.15;;;;;;;8.92;82.02;98727.78;4993870;28;20698;-80
2022/04/21 02:36:06;;;;;;;5.88;5.28;;;;;;;8.91;82.49;98718.88;4997177;28;20672;-80
2022/04/21 02:38:33;;;;;;;6.20;4.85;;;;;;;8.93;82.71;98716.06;4994845;28;20194;-81
2022/04/21 02:40:59;;;;;;;6.00;5.40;;;;;;;8.94;82.58;98713.28;4993651;28;20204;-80
2022/04/21 02:43:26;;;;;;;6.47;5.97;;;;;;;8.83;83.84;98710.44;5010478;28;20559;-81
2022/04/21 02:45:54;;;;;;;5.93;5.35;;;;;;;8.92;83.67;98704.47;5011603;28;20587;-80
2022/04/21 02:48:21;;;;;;;6.43;5.63;;;;;;;8.92;83.65;98707.16;5005095;28;20196;-80
2022/04/21 02:50:49;;;;;;;6.00;5.30;;;;;;;8.96;83.58;98705.16;4993066;28;20204;-81
2022/04/21 02:53:18;;;;;;;5.78;5.28;;;;;;;8.89;84.19;98707.38;5008804;28;20270;-80
2022/04/21 02:58:29;;;;;;;7.97;5.68;;;;;;;8.81;85.31;98709.69;5001977;28;20194;-81
2022/04/21 03:00:57;;;;;;;8.55;5.75;;;;;;;8.89;84.99;98693.09;4993158;28;20200;-80
2022/04/21 03:03:23;;;;;;;7.10;6.28;;;;;;;8.89;85.21;98704.69;5009381;28;20198;-80
2022/04/21 03:05:50;;;;;;;8.80;6.00;;;;;;;9.01;84.42;98696.78;5010717;28;20295;-80
2022/04/21 03:08:17;;;;;;;6.85;5.90;;;;;;;8.95;84.94;98698.03;5004779;28;20200;-82
2022/04/21 03:10:43;;;;;;;6.32;5.72;;;;;;;8.98;84.84;98698.72;4994490;28;20196;-81
2022/04/21 03:13:10;;;;;;;6.22;5.63;;;;;;;8.97;85.10;98702.34;4993406;28;20714;-80
2022/04/21 03:15:36;;;;;;;6.28;5.45;;;;;;;8.91;85.51;98704.56;4992829;28;20211;-81
2022/04/21 03:18:04;;;;;;;7.05;5.85;;;;;;;9.06;84.67;98705.38;5001254;28;20275;-81
2022/04/21 03:25:59;;;;;;;6.43;5.38;;;;;;;9.16;84.20;98715.44;4993927;28;20189;-81
2022/04/21 03:28:25;;;;;;;9.52;5.97;;;;;;;9.16;84.18;98717.25;4997951;28;20217;-81
2022/04/21 03:30:52;;;;;;;7.10;6.15;;;;;;;9.19;84.21;98711.66;5010730;28;20622;-80
2022/04/21 03:33:20;;;;;;;9.55;5.88;;;;;;;9.18;84.41;98716.19;4996044;28;20239;-81
2022/04/21 03:35:47;;;;;;;6.13;5.53;;;;;;;8.99;85.49;98704.94;5012170;28;20216;-81
2022/04/21 03:38:14;;;;;;;7.78;7.07;;;;;;;8.84;87.15;98709.50;4993411;28;20194;-82
2022/04/21 03:40:40;;;;;;;7.57;5.63;;;;;;;8.84;87.18;98709.50;4992669;28;20208;-81
2022/04/21 03:43:07;;;;;;;7.05;5.43;;;;;;;9.04;86.06;98713.53;5007037;28;20188;-81
2022/04/21 03:45:34;;;;;;;7.18;6.43;;;;;;;8.83;87.25;98702.38;5012899;28;20278;-81
2022/04/21 03:48:02;;;;;;;7.75;6.90;;;;;;;9.09;86.28;98706.06;5000731;28;20188;-81
2022/04/21 03:50:31;;;;;;;6.93;6.32;;;;;;;9.02;86.52;98702.03;4993118;28;20214;-81
2022/04/21 03:52:57;;;;;;;7.13;6.53;;;;;;;8.97;86.48;98699.66;4993656;28;20208;-81
2022/04/21 03:55:25;;;;;;;6.55;5.75;;;;;;;9.18;85.46;98696.53;5009304;28;20885;-79
2022/04/21 03:57:52;;;;;;;6.25;5.65;;;;;;;9.27;84.60;98703.09;5012596;28;20212;-82
2022/04/21 04:00:19;;;;;;;11.15;6.97;;;;;;;9.29;84.24;98696.66;5001262;28;20209;-80
2022/04/21 04:02:45;;;;;;;6.35;5.75;;;;;;;9.29;84.46;98695.78;5007496;28;20200;-81
2022/04/21 04:05:12;;;;;;;6.70;6.00;;;;;;;9.28;84.50;98705.69;5013030;28;20944;-81
2022/04/21 04:13:08;;;;;;;7.13;6.43;;;;;;;8.95;86.28;98709.66;5010323;28;20204;-80
2022/04/21 04:15:34;;;;;;;7.75;6.88;;;;;;;9.19;85.25;98704.47;5012089;28;20208;-81
2022/04/21 04:18:01;;;;;;;7.90;7.10;;;;;;;9.15;85.88;98710.16;4999131;28;20553;-80
2022/04/21 04:20:28;;;;;;;8.80;7.07;;;;;;;9.19;85.36;98708.97;5011867;28;20197;-80
2022/04/21 04:22:56;;;;;;;8.80;6.88;;;;;;;9.15;85.41;98708.31;5003387;28;20197;-80
2022/04/21 04:25:22;;;;;;;9.20;6.78;;;;;;;9.00;86.18;98697.72;5011176;28;20786;-81
2022/04/21 04:27:49;;;;;;;9.40;7.03;;;;;;;8.74;88.23;98698.47;5011843;28;20199;-81
2022/04/21 04:30:15;;;;;;;7.53;6.70;;;;;;;8.74;89.01;98697.63;5012372;28;20190;-80
2022/04/21 04:32:42;;;;;;;7.63;6.60;;;;;;;8.68;89.30;98698.00;5012101;28;20206;-81
2022/04/21 04:35:09;;;;;;;8.65;7.32;;;;;;;8.67;90.49;98702.53;5003222;28;20192;-80
2022/04/21 04:37:36;;;;;;;7.13;6.43;;;;;;;8.69;89.73;98699.75;4992275;28;20536;-80
2022/04/21 04:40:05;;;;;;;8.38;6.82;;;;;;;8.83;89.10;98701.53;4992295;28;20275;-82
2022/04/21 04:42:30;;;;;;;13.82;8.77;;;;;;;8.87;88.30;98701.22;4992932;28;20209;-81
2022/04/21 04:47:38;;;;;;;13.10;8.10;;;;;;;8.85;89.53;98697.78;4992682;28;20606;-80
2022/04/21 04:50:06;;;;;;;11.15;7.45;;;;;;;8.83;88.84;98699.72;4996338;28;20205;-81
2022/04/21 04:52:32;;;;;;;8.80;7.70;;;;;;;8.95;88.21;98701.59;5009604;28;20639;-80
2022/04/21 04:54:59;;;;;;;9.00;7.82;;;;;;;8.95;87.93;98698.03;5011622;28;20191;-81
2022/04/21 04:57:27;;;;;;;9.45;8.15;;;;;;;9.17;86.25;98703.69;4995262;28;20177;-80
2022/04/21 04:59:54;;;;;;;11.75;7.93;;;;;;;9.14;85.84;98708.44;4996176;28;20202;-80
2022/04/21 05:02:20;;;;;;;10.15;7.88;;;;;;;9.19;85.14;98706.31;4996075;28;20193;-80
2022/04/21 05:04:47;;;;;;;8.88;7.35;;;;;;;9.19;85.14;98712.53;4995556;28;20200;-79
2022/04/21 05:07:14;;;;;;;9.20;7.35;;;;;;;9.25;85.10;98705.91;4995578;28;20562;-79
2022/04/21 05:09:41;;;;;;;9.63;7.57;;;;;;;9.29;84.87;98701.16;4996928;28;20216;-79
2022/04/21 05:12:09;;;;;;;10.68;9.02;;;;;;;9.13;85.63;98712.94;5004231;28;20192;-80
2022/04/21 05:14:37;;;;;;;11.60;8.32;;;;;;;9.23;84.82;98698.91;5015542;28;20201;-83
2022/04/21 05:17:04;;;;;;;7.85;7.05;;;;;;;9.02;86.05;98698.50;5015719;28;20205;-83
2022/04/21 05:19:31;;;;;;;9.18;8.23;;;;;;;9.16;85.10;98696.63;5015403;28;20237;-83
2022/04/21 05:22:01;;;;;;;8.88;7.97;;;;;;;9.00;85.98;98695.94;5015455;28;20206;-83
2022/04/21 05:24:30;;;;;;;9.45;8.05;;;;;;;8.63;88.74;98692.09;5004430;28;20591;-82
2022/04/21 05:26:58;;;;;;;9.15;7.63;;;;;;;8.71;88.88;98689.78;5004466;28;20276;-82
2022/04/21 05:32:12;;;;;;;10.45;8.70;;;;;;;9.03;87.23;98695.72;5015352;28;20234;-81
2022/04/21 05:34:40;;;;;;;9.07;8.07;;;;;;;9.10;85.93;98688.13;5014254;28;20193;-80
2022/04/21 05:37:08;;;;;;;12.85;8.00;;;;;;;9.17;85.76;98692.09;5014706;28;20218;-83
2022/04/21 05:39:35;;;;;;;9.07;7.60;;;;;;;9.34;84.93;98691.00;4999853;28;20197;-83
2022/04/21 05:42:02;;;;;;;8.15;7.35;;;;;;;9.33;83.67;98691.94;5009665;28;20232;-84
2022/04/21 05:44:29;;;;;;;10.75;8.68;;;;;;;9.44;82.76;98686.69;5015595;28;20308;-83
2022/04/21 05:46:56;;;;;;;9.10;8.18;;;;;;;9.46;82.77;98686.59;5015036;28;20246;-83
2022/04/21 05:49:25;;;;;;;8.48;7.57;;;;;;;9.60;81.86;98690.06;5014826;28;20660;-83
2022/04/21 05:51:53;;;;;;;8.60;7.38;;;;;;;9.57;81.63;98684.06;5014691;28;20244;-82
2022/04/21 05:54:21;;;;;;;10.00;7.90;;;;;;;9.50;81.15;98680.06;5014480;28;20204;-78
2022/04/21 05:56:48;;;;;;;8.20;7.40;;;;;;;9.49;81.85;98678.31;5013265;28;20365;-78
2022/04/21 05:59:15;;;;;;;8.93;8.10;;;;;;;9.69;80.32;98685.88;5012611;28;20216;-77
2022/04/21 06:01:42;;;;;;;14.27;7.95;;;;;;;9.81;79.60;98685.03;5013411;28;20225;-78
2022/04/21 06:04:08;;;;;;;9.65;7.60;;;;;;;9.59;80.31;98687.50;5012066;28;20201;-77
2022/04/21 06:06:36;;;;;;;10.63;8.13;;;;;;;9.77;80.25;98674.63;5013545;28;20528;-78
2022/04/21 06:09:03;;;;;;;12.98;11.60;;;;;;;9.92;78.74;98676.22;5013367;28;20678;-78
2022/04/21 06:11:33;;;;;;;10.90;8.45;;;;;;;9.99;78.82;98673.94;5013392;28;20521;-78
2022/04/21 06:13:59;;;;;;;10.00;8.70;;;;;;;9.96;78.23;98677.72;5013788;28;20201;-78
2022/04/21 06:16:26;;;;;;;8.57;7.63;;;;;;;10.20;76.70;98676.97;5013344;28;20727;-77
2022/04/21 06:18:52;;;;;;;9.70;8.70;;;;;;;10.01;77.21;98670.19;5013094;28;20190;-77
2022/04/21 06:21:19;;;;;;;10.02;8.80;;;;;;;10.18;76.82;98671.69;5013379;28;20197;-78
2022/04/21 06:23:47;;;;;;;11.30;8.73;;;;;;;10.18;76.60;98669.00;5013109;28;20198;-77
2022/04/21 06:26:14;;;;;;;10.85;8.30;;;;;;;10.17;76.44;98666.41;5013733;28;20198;-78
2022/04/21 06:28:41;;;;;;;10.48;8.65;;;;;;;10.18;76.33;98669.00;5013504;28;20233;-78
2022/04/21 06:31:08;;;;;;;9.23;8.40;;;;;;;10.29;75.36;98665.59;5013491;28;20272;-77
2022/04/21 06:33:35;;;;;;;10.38;8.32;;;;;;;10.26;75.65;98663.06;5012788;28;20206;-78
2022/04/21 06:36:03;;;;;;;8.88;7.97;;;;;;;10.23;75.71;98660.59;5012909;28;20217;-78
2022/04/21 06:38:29;;;;;;;9.68;8.63;;;;;;;10.29;75.70;98657.50;5013125;28;20194;-78
2022/04/21 06:40:57;;;;;;;11.45;7.63;;;;;;;10.35;74.75;98646.28;5013241;28;20205;-78
2022/04/21 06:48:57;;;;;;;9.38;8.38;;;;;;;10.72;71.85;98645.41;5011514;28;20669;-77
2022/04/21 06:51:25;;;;;;;12.38;9.43;;;;;;;10.79;71.90;98652.94;5012511;28;20761;-78
2022/04/21 06:53:51;;;;;;;11.38;8.50;;;;;;;10.87;71.07;98659.59;5012222;28;20206;-78
2022/04/21 06:56:19;;;;;;;10.38;8.93;;;;;;;10.95;70.34;98646.44;5012009;28;20239;-78
2022/04/21 06:58:46;;;;;;;11.52;8.82;;;;;;;10.92;70.15;98652.03;5012685;28;20269;-78
2022/04/21 07:01:13;;;;;;;11.00;8.45;;;;;;;11.06;69.73;98644.66;5012709;28;20187;-78
2022/04/21 07:03:40;;;;;;;9.55;8.55;;;;;;;11.15;69.24;98634.16;5012473;28;20230;-78
2022/04/21 07:06:07;;;;;;;12.55;7.68;;;;;;;11.20;68.77;98631.97;5012431;28;20245;-77
2022/04/21 07:08:34;;;;;;;13.25;8.82;;;;;;;11.39;68.17;98644.88;5012134;28;20270;-77
2022/04/21 07:11:01;;;;;;;12.57;9.15;;;;;;;11.59;66.83;98635.25;5011558;28;20207;-78
2022/04/21 07:13:29;;;;;;;12.18;10.35;;;;;;;11.41;67.53;98641.09;5012049;28;20190;-77
2022/04/21 07:15:55;;;;;;;9.48;8.45;;;;;;;11.64;66.35;98638.44;5011754;28;20237;-77
2022/04/21 07:18:22;;;;;;;10.02;9.00;;;;;;;11.73;65.82;98640.44;5011861;28;20198;-78
2022/04/21 07:20:48;;;;;;;10.65;9.07;;;;;;;11.60;66.45;98636.97;5012231;28;20190;-77
2022/04/21 07:23:15;;;;;;;9.40;8.40;;;;;;;11.78;65.22;98635.56;5011850;28;20268;-78
2022/04/21 07:25:42;;;;;;;9.73;8.68;;;;;;;11.79;65.45;98648.06;5011888;28;20241;-79
2022/04/21 07:28:09;;;;;;;12.00;8.90;;;;;;;11.96;64.05;98643.19;5011989;28;20564;-78
2022/04/21 07:30:37;;;;;;;10.38;8.55;;;;;;;12.04;63.06;98646.16;5029380;23;20286;-83
2022/04/21 07:33:04;;;;;;;13.50;9.75;;;;;;;12.08;63.24;98648.47;4973659;28;20616;-86
2022/04/21 07:35:32;;;;;;;14.27;9.20;;;;;;;12.09;62.71;98638.53;4973678;28;20196;-86
2022/04/21 07:37:59;;;;;;;11.93;8.82;;;;;;;12.36;60.90;98645.41;4974008;28;20212;-85
2022/04/21 07:40:26;;;;;;;10.95;8.40;;;;;;;12.28;61.08;98649.59;4973651;28;20200;-84
2022/04/21 07:42:53;;;;;;;10.70;8.85;;;;;;;12.24;60.73;98648.13;4973846;28;20628;-86
2022/04/21 07:45:19;;;;;;;12.07;9.88;;;;;;;12.37;60.57;98644.41;4973619;28;20210;-85
2022/04/21 07:47:47;;;;;;;13.10;10.95;;;;;;;12.29;60.38;98642.34;4973415;28;20194;-85
2022/04/21 07:50:14;;;;;;;10.05;9.05;;;;;;;12.45;59.82;98655.47;4974307;28;20218;-85
2022/04/21 07:55:26;;;;;;;10.38;9.18;;;;;;;12.46;59.88;98644.56;4973401;28;20228;-86
2022/04/21 07:57:55;;;;;;;10.38;8.93;;;;;;;12.49;59.50;98651.53;4973159;28;20304;-86
2022/04/21 08:00:21;;;;;;;11.07;9.00;;;;;;;12.66;58.57;98645.63;4973338;28;20215;-86
2022/04/21 08:02:50;;;;;;;11.43;10.10;;;;;;;12.59;58.62;98655.19;4973587;28;20538;-86
2022/04/21 08:05:18;;;;;;;13.55;10.05;;;;;;;12.55;59.39;98652.88;4973416;28;20196;-85
2022/04/21 08:07:45;;;;;;;11.63;9.57;;;;;;;12.54;58.85;98656.56;4973679;28;20204;-84
2022/04/21 08:10:13;;;;;;;10.55;9.45;;;;;;;12.88;58.08;98657.34;4981893;28;20262;-76
2022/04/21 08:12:41;;;;;;;11.45;9.65;;;;;;;12.90;57.29;98658.09;4972835;28;20239;-76
2022/04/21 08:15:08;;;;;;;13.07;10.30;;;;;;;12.99;57.60;98654.63;4973190;28;20235;-76
2022/04/21 08:17:36;;;;;;;10.23;9.20;;;;;;;13.11;57.04;98669.84;4972694;28;20209;-77
2022/04/21 08:20:06;;;;;;;10.65;9.50;;;;;;;13.43;55.54;98657.31;4972664;28;20610;-77
2022/04/21 08:22:32;;;;;;;10.88;8.93;;;;;;;13.61;55.21;98657.59;4972908;28;20205;-77
2022/04/21 08:33:11;;;;;;;9.80;8.30;;;;;;;13.74;53.13;98660.97;4975958;28;20197;-76
2022/04/21 08:35:39;;;;;;;8.52;7.47;;;;;;;13.24;54.69;98660.69;4975669;28;20269;-77
2022/04/21 08:38:07;;;;;;;8.27;7.35;;;;;;;13.68;53.85;98656.94;4976077;28;20225;-77
2022/04/21 08:40:36;;;;;;;11.43;7.55;;;;;;;14.09;52.16;98654.34;4976015;28;20192;-76
2022/04/21 08:43:08;;;;;;;7.50;6.15;;;;;;;14.09;51.47;98665.19;4976361;28;20612;-76
2022/04/21 08:45:35;;;;;;;10.80;6.30;;;;;;;13.94;51.51;98654.69;4975713;28;20221;-75
2022/04/21 08:48:04;;;;;;;6.65;6.10;;;;;;;14.10;51.29;98656.06;4975657;28;20302;-77
2022/04/21 08:50:31;;;;;;;5.97;5.35;;;;;;;14.26;50.67;98644.72;4976023;28;20191;-77
2022/04/21 08:53:00;;;;;;;6.07;5.47;;;;;;;14.33;49.77;98638.63;4975953;28;20231;-76
2022/04/21 08:55:28;;;;;;;5.82;5.22;;;;;;;13.91;51.56;98636.00;4975863;28;20539;-76
2022/04/21 08:57:56;;;;;;;5.90;5.35;;;;;;;13.85;51.91;98643.81;4975460;28;20232;-77
2022/04/21 09:00:23;;;;;;;5.47;4.95;;;;;;;13.76;52.56;98648.16;4974822;28;20644;-76
2022/04/21 09:02:50;;;;;;;5.00;4.50;;;;;;;14.23;51.30;98647.72;4975559;28;20213;-75
2022/04/21 09:05:20;;;;;;;7.90;5.20;;;;;;;14.43;50.29;98640.53;4975757;28;20196;-77
2022/04/21 09:07:47;;;;;;;5.63;4.25;;;;;;;14.44;49.88;98639.53;4975300;28;20261;-78
2022/04/21 09:10:17;;;;;;;4.93;4.50;;;;;;;14.82;49.20;98640.69;4975394;28;20633;-77
2022/04/21 09:12:45;;;;;;;5.78;4.65;;;;;;;15.07;48.30;98642.84;4975436;28;20210;-77
2022/04/21 09:15:14;;;;;;;5.43;4.88;;;;;;;15.26;47.66;98628.44;4975334;28;20287;-77
2022/04/21 09:17:46;;;;;;;5.53;5.00;;;;;;;15.27;47.99;98632.03;4975295;28;20214;-76
2022/04/21 09:20:14;;;;;;;7.50;4.03;;;;;;;15.49;46.91;98630.84;4975691;28;20546;-75
2022/04/21 09:22:43;;;;;;;5.60;5.05;;;;;;;14.97;48.05;98636.56;4975198;28;20197;-77
2022/04/21 09:25:11;;;;;;;5.00;4.47;;;;;;;15.33;47.37;98628.72;4975399;28;20206;-77
2022/04/21 09:27:43;;;;;;;7.28;4.57;;;;;;;15.71;46.50;98622.44;4975180;28;20677;-76
2022/04/21 09:30:12;;;;;;;5.00;4.20;;;;;;;14.99;48.09;98632.72;4974808;28;20224;-76
2022/04/21 09:32:41;;;;;;;5.80;5.20;;;;;;;14.92;48.50;98619.84;4975205;28;20544;-76
2022/04/21 09:35:09;;;;;;;4.75;4.30;;;;;;;15.35;47.93;98615.88;4974283;28;20207;-76
2022/04/21 09:37:46;;;;;;;5.05;4.55;;;;;;;15.39;47.42;98612.72;4974833;28;20298;-77
2022/04/21 09:40:13;;;;;;;6.43;4.85;;;;;;;15.43;47.40;98611.44;4984686;28;20648;-86
2022/04/21 09:42:40;;;;;;;5.85;4.50;;;;;;;16.08;45.96;98610.78;4975925;28;20615;-86
2022/04/21 09:47:54;;;;;;;4.70;4.30;;;;;;;16.17;45.32;98603.63;4975342;28;20207;-85
2022/04/21 09:50:25;;;;;;;5.50;4.00;;;;;;;16.35;44.87;98604.53;4975666;28;20199;-86
2022/04/21 09:52:52;;;;;;;7.97;4.10;;;;;;;16.27;44.41;98597.13;4975642;28;20206;-86
2022/04/21 09:55:25;;;;;;;4.03;3.65;;;;;;;16.27;44.85;98601.69;4975215;28;20294;-85
2022/04/21 09:57:53;;;;;;;5.80;3.90;;;;;;;15.81;45.56;98595.28;4975307;28;20773;-85
2022/04/21 10:00:22;;;;;;;4.47;3.80;;;;;;;15.42;46.66;98590.78;4975308;28;20196;-86
2022/04/21 10:02:50;;;;;;;5.03;4.15;;;;;;;15.69;46.50;98585.56;4976123;28;20201;-85
2022/04/21 10:05:17;;;;;;;4.35;4.05;;;;;;;16.14;45.24;98590.31;4975785;28;20529;-85
2022/04/21 10:07:46;;;;;;;5.07;3.90;;;;;;;15.80;45.66;98589.00;4975588;28;20186;-84
2022/04/21 10:10:12;;;;;;;4.97;4.32;;;;;;;16.21;44.99;98576.00;4978799;28;20199;-79
2022/04/21 10:12:41;;;;;;;7.38;4.35;;;;;;;16.49;44.73;98583.31;4974291;28;20181;-76
2022/04/21 10:15:09;;;;;;;4.10;3.80;;;;;;;16.47;44.65;98575.31;4974366;28;20629;-76
2022/04/21 10:17:37;;;;;;;4.63;4.18;;;;;;;16.60;44.25;98580.38;4974624;28;20252;-76
2022/04/21 10:20:06;;;;;;;3.90;3.50;;;;;;;16.63;44.19;98571.91;4974247;28;20210;-75
2022/04/21 10:22:34;;;;;;;5.00;4.18;;;;;;;16.58;44.45;98564.22;4974083;28;20215;-76
2022/04/21 10:25:03;;;;;;;4.80;4.20;;;;;;;15.92;45.59;98570.69;4974092;28;20582;-76
2022/04/21 10:27:37;;;;;;;8.13;4.50;;;;;;;16.12;45.83;98566.00;4973966;28;20613;-75
2022/04/21 10:30:12;;;;;;;3.92;3.63;;;;;;;16.50;45.13;98549.69;4973829;28;20710;-78
2022/04/21 10:33:04;;;;;;;3.83;3.53;;;;;;;16.30;45.39;98557.94;4974254;28;20278;-77
2022/04/21 10:35:49;;;;;;;5.50;4.20;;;;;;;16.45;45.09;98563.72;4959122;28;20203;-77
2022/04/21 10:38:21;;;;;;;7.80;4.13;;;;;;;16.52;45.00;98555.81;4973288;28;20556;-76
2022/04/21 10:41:05;;;;;;;5.55;4.40;;;;;;;16.90;44.31;98556.59;4979176;28;20204;-77
2022/04/21 10:44:03;;;;;;;5.40;4.65;;;;;;;17.04;43.70;98545.19;4973629;28;20570;-76
2022/04/21 10:46:31;;;;;;;5.07;4.50;;;;;;;17.22;43.20;98551.44;4972992;28;20292;-76
2022/04/21 10:49:00;;;;;;;6.63;4.68;;;;;;;17.23;43.52;98535.97;4973577;28;20345;-75
2022/04/21 10:58:47;;;;;;;5.28;4.43;;;;;;;16.91;43.80;98518.38;4973269;28;20235;-77
2022/04/21 11:01:15;;;;;;;5.40;4.25;;;;;;;16.91;43.37;98506.66;4973420;28;20200;-77
2022/04/21 11:03:43;;;;;;;4.82;3.78;;;;;;;17.17;43.11;98509.44;4973650;28;20188;-76
2022/04/21 11:06:13;;;;;;;4.43;3.90;;;;;;;17.27;43.14;98508.31;4973368;28;20194;-76
2022/04/21 11:08:41;;;;;;;7.10;4.35;;;;;;;17.47;42.68;98502.66;4973776;28;20677;-77
2022/04/21 11:11:08;;;;;;;5.50;4.05;;;;;;;17.37;42.35;98501.94;4973270;28;20279;-78
2022/04/21 11:13:43;;;;;;;5.70;4.90;;;;;;;17.22;42.79;98505.22;4973732;28;20247;-78
2022/04/21 11:16:10;;;;;;;7.88;4.35;;;;;;;17.26;41.82;98498.44;4973003;28;20215;-76
2022/04/21 11:18:37;;;;;;;4.90;3.67;;;;;;;17.32;41.97;98506.97;4972840;28;20227;-77
2022/04/21 11:21:26;;;;;;;10.05;5.35;;;;;;;17.36;41.59;98505.66;4973108;28;20188;-76
2022/04/21 11:24:02;;;;;;;3.50;3.20;;;;;;;17.02;41.68;98501.81;4973375;28;20188;-76
2022/04/21 11:26:29;;;;;;;4.07;3.70;;;;;;;16.74;41.49;98484.72;4973245;28;20192;-77
2022/04/21 11:29:02;;;;;;;8.60;3.20;;;;;;;16.82;41.53;98495.72;4972648;28;20203;-77
2022/04/21 11:31:29;;;;;;;4.88;3.38;;;;;;;16.86;41.28;98497.09;4973025;28;20600;-76
2022/04/21 11:34:01;;;;;;;4.70;4.20;;;;;;;16.82;41.17;98483.97;4973166;28;20203;-78
2022/04/21 11:36:36;;;;;;;7.93;3.40;;;;;;;16.58;41.42;98479.97;4972830;28;20184;-76
2022/04/21 11:39:07;;;;;;;4.22;3.60;;;;;;;16.62;41.66;98485.94;4973018;28;20314;-77
2022/04/21 11:41:34;;;;;;;4.80;3.22;;;;;;;17.01;41.16;98480.25;4972556;28;20192;-76
2022/04/21 11:44:01;;;;;;;5.60;3.95;;;;;;;17.51;40.72;98477.69;4972924;28;20638;-77
2022/04/21 11:46:28;;;;;;;4.50;3.30;;;;;;;17.51;41.18;98485.03;4972744;28;20219;-76
2022/04/21 11:49:00;;;;;;;2.80;2.60;;;;;;;17.48;40.65;98498.97;4972734;28;20275;-77
2022/04/21 11:51:28;;;;;;;6.47;4.07;;;;;;;17.25;40.61;98487.72;4972745;28;20511;-76
2022/04/21 11:53:56;;;;;;;4.03;3.00;;;;;;;17.23;40.19;98487.91;4972768;28;20332;-76
2022/04/21 11:56:23;;;;;;;4.55;3.10;;;;;;;17.01;40.76;98478.38;4972638;28;20324;-77
2022/04/21 11:58:50;;;;;;;3.90;3.40;;;;;;;17.11;40.46;98480.13;4977234;28;20611;-77
2022/04/21 12:06:47;;;;;;;3.90;3.45;;;;;;;16.82;41.32;98444.06;4977525;28;20234;-78
2022/04/21 12:09:16;;;;;;;7.82;3.10;;;;;;;17.18;41.05;98443.13;4977654;28;20199;-76
2022/04/21 12:11:47;;;;;;;3.20;2.90;;;;;;;17.33;40.70;98452.41;4977534;28;20184;-78
2022/04/21 12:14:15;;;;;;;3.45;2.53;;;;;;;17.10;41.10;98443.94;4977143;28;20185;-78
2022/04/21 12:16:45;;;;;;;3.40;3.10;;;;;;;17.39;40.98;98443.63;4977294;28;20204;-77
2022/04/21 12:19:28;;;;;;;4.63;3.70;;;;;;;17.60;40.01;98436.94;4977803;28;20303;-76
2022/04/21 12:22:00;;;;;;;7.28;2.83;;;;;;;17.90;39.84;98432.84;4976077;28;20278;-77
2022/04/21 12:24:33;;;;;;;4.07;2.50;;;;;;;17.48;40.54;98430.94;4977061;28;20184;-76
2022/04/21 12:27:01;;;;;;;4.82;2.40;;;;;;;17.06;41.43;98439.81;4977384;28;20711;-76
2022/04/21 12:29:31;;;;;;;4.60;2.95;;;;;;;17.53;40.88;98439.44;4976952;28;20184;-78
2022/04/21 12:32:01;;;;;;;3.63;2.65;;;;;;;17.69;40.64;98431.38;4976899;28;20242;-77
2022/04/21 12:34:29;;;;;;;3.40;3.00;;;;;;;17.82;40.28;98427.34;4976191;28;20517;-76
2022/04/21 12:36:58;;;;;;;4.40;3.17;;;;;;;18.14;39.82;98432.09;4975667;28;20211;-76
2022/04/21 12:39:25;;;;;;;3.38;2.97;;;;;;;17.89;40.13;98442.88;4975075;28;20204;-77